Maxwell, IA (50161)

6:06 PM CDT on August 01, 2015 (GMT -0500)
Tranquility Base | | Change Station
CLOSE
Current Station
Personal Weather Station
Location: Maxwell, IA
Elevation: 902 ft
Nearby Weather Stations

Elev 902 ft 41.89 °N, 93.40 °W | Updated 10 minutes ago

Partly Cloudy
Partly Cloudy
88.0 °F
Feels Like 98 °F
N
2.7
Wind Variable Wind from SW

Today
High -- | Low -- °F
--% Chance of Precip.
Yesterday
High -- | Low -- °F
Precip. -- in
6:07 AM 8:32 PM
Full, 97% visible
Pressure 29.90 in
Visibility 10.0 miles
Clouds Clear
Heat Index 98 °F
Dew Point 75 °F
Humidity 65%
Rainfall 0.00 in
Snow Depth Not available.
UV 3 out of 12
Pollen 6.70 out of 12
Air Quality Not available.
Flu Activity Not available.
METAR KAMW 012253Z AUTO 23006KT 10SM CLR 28/22 A2992 RMK AO2 SLP123 T02830222

More Conditions Fewer Conditions

Pressure 29.90 in
Visibility 10.0 miles
Clouds Clear
Heat Index 98 °F
Dew Point 75 °F
Humidity 65%
Rainfall 0.00 in
Snow Depth Not available.
UV 3 out of 12
Pollen 6.70 out of 12
Air Quality Not available.
Flu Activity Not available.
METAR KAMW 012253Z AUTO 23006KT 10SM CLR 28/22 A2992 RMK AO2 SLP123 T02830222

More Conditions Fewer Conditions

10-Day Weather Forecast

×

Almanac

Astronomy

Aug. 01, 2015 Rise Set
Actual Time
Civil Twilight
Nautical Twilight
Astronomical Twilight
Moon
Length of Visible Light
Length of Day
Tomorrow will be .
, % of the Moon is Illuminated

Today's Extremes

State Highs State Lows

Community

WunderPhotos

Upload Photos

1,843,087 photos uploaded!

WunderBlogs® & News

Nearby

Air Quality

  Air Quality AQ Index Pollutant
Not available.

Snow Depth

Station Depth Elevation

Earthquake Activity

City Distance Mag. Time & Date
Minimum magnitude displayed is 2.5.

Coastal Water Temperatures

Place Temperature

Stations

Nearby Weather Stations

Station Location Temp. Windchill Dew Point Humidity Wind Precip. Elev Updated Type